»·PEaware :: AAL1038 CYYZ-KDFW

AAL1038 :: CYYZ-KDFW

FLIGHT INFORMATION

Flight Status: Arrived
Operator:
American Airlines
More flights by this operator :: More flights under this callsign
Pilot: Drew Leevy (13237)
Aircraft: MCDONNELL-DOUGLAS MD-88
(MD88)
More flights by this aircraft type
Origin: CYYZ Toronto/Pearson Intl
Canada
Destination: KDFW Dallas-Ft Worth Intl
United States
More flights between these airports :: More routes between these airports
Route: GOPUP2 HOCKE FNT J94 OBK MZV IRK MCI PER IRW IBAKE VKTRY2
File this flight plan on PilotEdge
Remarks:
Altitude:
(Current/Filed)
30,000ft
Speed:
(Current/Filed)
455kts
Departed: 08-Jul-17 08:40 PM
Arrived: 08-Jul-17 11:38 PM
Distance/Time
Traveled:
1041nm/2:58
Distance/Time
To Go:
Arrived

Flight Plot

Page will automatically refresh every two minutes.

Flight plan parsing failed; only flown route is shown


Map Options




Map Legend


Flown Route
Filed Route
Departure Airport
Arrival Airport
Navaid (VOR, NDB)
Fix

Horizontal Profiles

Position Reports

Time Latitude Longitude Heading Altitude Ground
Speed
08-Jul-17 20:42 43.705011 -80.032008 277 16482ft 297kts
08-Jul-17 20:43 43.717887 -80.153982 277 17920ft 340kts
08-Jul-17 20:44 43.731589 -80.286732 275 20024ft 355kts
08-Jul-17 20:45 43.733081 -80.424974 269 22138ft 365kts
08-Jul-17 20:46 43.732109 -80.566933 269 24113ft 375kts
08-Jul-17 20:47 43.731210 -80.711704 268 25931ft 384kts
08-Jul-17 20:48 43.730497 -80.860497 268 27601ft 392kts
08-Jul-17 20:49 43.729955 -81.012740 268 29060ft 400kts
08-Jul-17 20:50 43.729605 -81.166883 268 29995ft 406kts
08-Jul-17 20:51 43.729464 -81.321262 269 29983ft 398kts
08-Jul-17 20:52 43.729535 -81.473874 269 29988ft 398kts
08-Jul-17 20:53 43.705817 -81.621298 243 29990ft 400kts
08-Jul-17 20:54 43.648977 -81.754965 243 29997ft 420kts
08-Jul-17 20:55 43.590261 -81.898068 243 30004ft 429kts
08-Jul-17 20:56 43.531800 -82.040481 244 29993ft 428kts
08-Jul-17 20:57 43.473526 -82.183325 245 29993ft 427kts
08-Jul-17 20:58 43.416346 -82.326009 244 29993ft 428kts
08-Jul-17 20:59 43.358807 -82.469026 245 30047ft 428kts
08-Jul-17 21:00 43.301440 -82.611990 245 30046ft 428kts
08-Jul-17 21:01 43.248780 -82.755506 251 30051ft 425kts
08-Jul-17 21:02 43.206424 -82.906463 251 30052ft 425kts
08-Jul-17 21:03 43.163291 -83.056327 252 30074ft 424kts
08-Jul-17 21:04 43.120250 -83.206426 252 30076ft 425kts
08-Jul-17 21:05 43.077238 -83.357123 252 30075ft 424kts
08-Jul-17 21:06 43.034558 -83.507329 252 30075ft 425kts
08-Jul-17 21:07 42.992331 -83.656654 252 30074ft 425kts
08-Jul-17 21:08 42.953735 -83.808715 259 30085ft 424kts
08-Jul-17 21:09 42.922505 -83.963344 257 30078ft 423kts
08-Jul-17 21:10 42.890898 -84.116602 257 30072ft 423kts
08-Jul-17 21:11 42.859230 -84.271025 258 30071ft 424kts
08-Jul-17 21:12 42.827500 -84.425358 259 30075ft 427kts
08-Jul-17 21:13 42.796066 -84.581808 259 30097ft 429kts
08-Jul-17 21:14 42.763018 -84.736696 258 30101ft 429kts
08-Jul-17 21:15 42.729561 -84.892346 258 30101ft 429kts
08-Jul-17 21:16 42.696377 -85.047787 258 30078ft 429kts
08-Jul-17 21:17 42.663471 -85.203204 258 30073ft 428kts
08-Jul-17 21:18 42.629396 -85.358378 258 30072ft 429kts
08-Jul-17 21:19 42.595281 -85.512525 258 30100ft 428kts
08-Jul-17 21:20 42.563110 -85.658606 258 30099ft 428kts
08-Jul-17 21:21 42.561454 -85.666143 258 30100ft 428kts
08-Jul-17 21:22 42.561454 -85.666143 258 30100ft 428kts
08-Jul-17 21:23 42.561454 -85.666143 258 30100ft 428kts
08-Jul-17 21:24 42.561454 -85.666143 258 30100ft 428kts
08-Jul-17 21:25 42.561454 -85.666143 258 30100ft 428kts
08-Jul-17 21:26 42.550514 -85.716018 258 30103ft 428kts
08-Jul-17 21:27 42.516750 -85.870646 257 30102ft 428kts
08-Jul-17 21:28 42.483208 -86.025094 258 30102ft 428kts
08-Jul-17 21:29 42.456219 -86.180623 265 30103ft 423kts
08-Jul-17 21:30 42.435790 -86.338053 264 30101ft 424kts
08-Jul-17 21:31 42.414959 -86.494736 264 30100ft 424kts
08-Jul-17 21:32 42.394327 -86.651232 264 30100ft 424kts
08-Jul-17 21:33 42.373958 -86.807319 264 30104ft 424kts
08-Jul-17 21:34 42.353656 -86.964557 264 30104ft 424kts
08-Jul-17 21:35 42.333666 -87.121026 264 30103ft 424kts
08-Jul-17 21:36 42.313812 -87.278031 264 30102ft 425kts
08-Jul-17 21:37 42.294046 -87.434935 264 30102ft 425kts
08-Jul-17 21:38 42.271979 -87.591735 263 30101ft 425kts
08-Jul-17 21:39 42.249885 -87.747851 263 30106ft 426kts
08-Jul-17 21:40 42.227920 -87.904453 263 30105ft 425kts
08-Jul-17 21:41 42.187978 -88.055314 249 30107ft 434kts
08-Jul-17 21:42 42.137022 -88.202475 250 30105ft 434kts
08-Jul-17 21:43 42.086106 -88.350006 250 30104ft 434kts
08-Jul-17 21:44 42.035572 -88.496969 250 30103ft 434kts
08-Jul-17 21:45 41.985264 -88.643833 250 30125ft 433kts
08-Jul-17 21:46 41.935952 -88.788315 250 30135ft 434kts
08-Jul-17 21:47 41.889554 -88.924759 250 30127ft 434kts
08-Jul-17 21:48 41.839799 -89.071631 250 30126ft 433kts
08-Jul-17 21:49 41.790233 -89.218505 251 30126ft 433kts
08-Jul-17 21:50 41.740807 -89.365509 251 30125ft 433kts
08-Jul-17 21:51 41.691563 -89.512545 251 30125ft 433kts
08-Jul-17 21:52 41.642847 -89.658565 251 30125ft 433kts
08-Jul-17 21:53 41.594066 -89.805335 251 30129ft 433kts
08-Jul-17 21:54 41.545536 -89.951923 251 30102ft 433kts
08-Jul-17 21:55 41.497001 -90.099090 251 30102ft 433kts
08-Jul-17 21:56 41.448713 -90.246081 251 30101ft 433kts
08-Jul-17 21:57 41.400710 -90.392772 252 30101ft 433kts
08-Jul-17 21:58 41.352987 -90.539175 252 30101ft 433kts
08-Jul-17 21:59 41.297564 -90.680835 237 30104ft 443kts
08-Jul-17 22:00 41.218960 -90.807610 236 30107ft 445kts
08-Jul-17 22:01 41.141111 -90.934164 236 30106ft 444kts
08-Jul-17 22:02 41.063243 -91.061024 236 30106ft 444kts
08-Jul-17 22:03 40.985572 -91.187799 236 30105ft 444kts
08-Jul-17 22:04 40.907950 -91.314729 236 30106ft 445kts
08-Jul-17 22:05 40.831650 -91.439714 237 30097ft 445kts
08-Jul-17 22:06 40.755067 -91.565260 238 30121ft 440kts
08-Jul-17 22:07 40.685405 -91.679924 237 30129ft 440kts
08-Jul-17 22:08 40.609320 -91.805239 237 30129ft 440kts
08-Jul-17 22:09 40.533253 -91.930742 237 30102ft 440kts
08-Jul-17 22:10 40.457462 -92.056012 237 30102ft 439kts
08-Jul-17 22:11 40.381823 -92.181261 238 30102ft 439kts
08-Jul-17 22:12 40.306442 -92.306305 238 30129ft 439kts
08-Jul-17 22:13 40.230831 -92.431959 238 30129ft 439kts
08-Jul-17 22:14 40.155625 -92.557167 238 30129ft 439kts
08-Jul-17 22:15 40.095852 -92.691573 248 30137ft 430kts
08-Jul-17 22:16 40.040486 -92.829799 248 30135ft 431kts
08-Jul-17 22:17 39.984768 -92.967937 248 30134ft 430kts
08-Jul-17 22:18 39.929336 -93.105681 248 30134ft 430kts
08-Jul-17 22:19 39.874364 -93.242685 248 30124ft 429kts
08-Jul-17 22:20 39.819452 -93.380182 247 30125ft 428kts
08-Jul-17 22:21 39.764665 -93.517339 247 30124ft 429kts
08-Jul-17 22:22 39.710365 -93.653879 247 30124ft 428kts
08-Jul-17 22:23 39.655829 -93.791435 247 30130ft 428kts
08-Jul-17 22:24 39.601695 -93.928392 247 30129ft 428kts
08-Jul-17 22:25 39.547729 -94.065351 247 30129ft 428kts
08-Jul-17 22:26 39.493723 -94.202791 247 30128ft 428kts
08-Jul-17 22:27 39.440032 -94.339852 247 30127ft 427kts
08-Jul-17 22:28 39.386480 -94.476852 248 30127ft 428kts
08-Jul-17 22:29 39.333360 -94.613419 248 30126ft 427kts
08-Jul-17 22:30 39.275124 -94.745591 232 30127ft 437kts
08-Jul-17 22:31 39.177882 -94.842350 220 30136ft 445kts
08-Jul-17 22:32 39.078016 -94.936426 221 30133ft 444kts
08-Jul-17 22:33 38.978900 -95.030067 221 30118ft 444kts
08-Jul-17 22:34 38.880306 -95.123543 220 30094ft 442kts
08-Jul-17 22:35 38.781376 -95.216910 221 30101ft 444kts
08-Jul-17 22:36 38.682495 -95.310601 221 30099ft 443kts
08-Jul-17 22:37 38.583620 -95.404345 221 30108ft 443kts
08-Jul-17 22:38 38.485035 -95.497892 221 30099ft 443kts
08-Jul-17 22:39 38.386530 -95.591441 221 30108ft 442kts
08-Jul-17 22:40 38.288420 -95.684690 221 30133ft 443kts
08-Jul-17 22:41 38.190208 -95.778057 221 30134ft 442kts
08-Jul-17 22:42 38.092130 -95.871486 221 30132ft 442kts
08-Jul-17 22:43 37.994152 -95.964849 221 30132ft 442kts
08-Jul-17 22:44 37.897180 -96.057352 221 30129ft 437kts
08-Jul-17 22:45 37.800724 -96.149376 221 30127ft 438kts
08-Jul-17 22:46 37.704040 -96.241719 221 30154ft 438kts
08-Jul-17 22:47 37.607086 -96.334398 221 30154ft 438kts
08-Jul-17 22:48 37.510148 -96.427134 221 30153ft 438kts
08-Jul-17 22:49 37.429712 -96.504158 221 30128ft 438kts
08-Jul-17 22:50 37.317211 -96.611921 221 30126ft 438kts
08-Jul-17 22:51 37.220792 -96.704377 221 30132ft 438kts
08-Jul-17 22:52 37.140519 -96.781405 221 30132ft 438kts
08-Jul-17 22:53 37.043677 -96.874544 220 30133ft 441kts
08-Jul-17 22:54 36.946587 -96.967709 220 30131ft 440kts
08-Jul-17 22:55 36.850546 -97.060066 221 30128ft 440kts
08-Jul-17 22:56 36.753740 -97.153236 221 30127ft 440kts
08-Jul-17 22:57 36.639144 -97.203087 190 30142ft 455kts
08-Jul-17 22:58 36.514498 -97.225337 191 30130ft 454kts
08-Jul-17 22:59 36.389645 -97.248533 191 30129ft 454kts
08-Jul-17 23:00 36.265389 -97.271685 191 30129ft 454kts
08-Jul-17 23:01 36.140820 -97.294907 191 30129ft 454kts
08-Jul-17 23:02 36.016234 -97.318123 191 30129ft 454kts
08-Jul-17 23:03 35.892112 -97.341259 191 30129ft 454kts
08-Jul-17 23:04 35.767891 -97.364412 191 30127ft 454kts
08-Jul-17 23:05 35.643338 -97.387632 191 30127ft 454kts
08-Jul-17 23:06 35.519434 -97.410733 191 30127ft 454kts
08-Jul-17 23:07 35.395003 -97.433932 191 30127ft 454kts
08-Jul-17 23:08 35.270313 -97.457182 191 30128ft 454kts
08-Jul-17 23:09 35.145777 -97.480407 191 30155ft 454kts
08-Jul-17 23:10 35.021208 -97.503433 190 30155ft 454kts
08-Jul-17 23:11 34.895634 -97.514292 186 30156ft 456kts
08-Jul-17 23:12 34.770385 -97.524854 186 30136ft 456kts
08-Jul-17 23:13 34.714772 -97.529580 186 30126ft 455kts
08-Jul-17 23:14 34.628433 -97.536947 186 29714ft 466kts
08-Jul-17 23:15 34.495109 -97.548357 186 27963ft 495kts
08-Jul-17 23:16 34.358595 -97.559905 185 26292ft 480kts
08-Jul-17 23:17 34.229876 -97.570860 185 24159ft 453kts
08-Jul-17 23:18 34.107981 -97.581162 185 22098ft 429kts
08-Jul-17 23:19 33.992557 -97.591291 183 20031ft 408kts
08-Jul-17 23:20 33.883762 -97.599898 183 17956ft 399kts
08-Jul-17 23:21 33.778127 -97.608852 183 16021ft 387kts
08-Jul-17 23:22 33.672998 -97.617381 184 14056ft 372kts
08-Jul-17 23:23 33.571048 -97.625958 185 12010ft 365kts
08-Jul-17 23:24 33.470929 -97.634348 185 10208ft 353kts
08-Jul-17 23:25 33.381258 -97.634016 156 10060ft 301kts
08-Jul-17 23:26 33.333698 -97.563129 125 10053ft 256kts
08-Jul-17 23:27 33.293532 -97.495463 126 10063ft 252kts
08-Jul-17 23:28 33.267662 -97.420091 90 8655ft 240kts
08-Jul-17 23:29 33.265612 -97.345755 94 7148ft 215kts
08-Jul-17 23:30 33.262550 -97.279576 95 5931ft 191kts
08-Jul-17 23:31 33.254295 -97.217886 115 5230ft 197kts
08-Jul-17 23:32 33.232665 -97.155461 113 5122ft 206kts
08-Jul-17 23:33 33.211454 -97.091747 113 4446ft 205kts
08-Jul-17 23:34 33.176076 -97.047808 185 3606ft 201kts
08-Jul-17 23:35 33.120796 -97.052805 181 3512ft 190kts
08-Jul-17 23:36 33.073552 -97.053728 180 2997ft 158kts
08-Jul-17 23:37 33.032625 -97.054028 180 2343ft 141kts
08-Jul-17 23:38 32.993436 -97.054231 180 2126ft 145kts
08-Jul-17 23:39 32.951123 -97.054630 177 1251ft 146kts
08-Jul-17 23:40 32.910087 -97.054715 179 613ft 132kts
08-Jul-17 23:41 32.895741 -97.053981 153 612ft 12kts
08-Jul-17 23:42 32.894169 -97.052857 136 612ft 10kts
08-Jul-17 23:43 32.894150 -97.047819 39 612ft 12kts
08-Jul-17 23:44 32.899259 -97.047640 0 612ft 21kts
08-Jul-17 23:45 32.900777 -97.044963 90 612ft 13kts
08-Jul-17 23:46 32.900167 -97.042642 181 612ft 2kts
08-Jul-17 23:47 32.900058 -97.042642 179 612ft 0kts

Navigation Log

Ident Type
Flight plan parsing failed, navigation log unavailable